createdAt,value
2022-12-31T00:01:14.932Z,22.20
2022-12-31T00:03:41.879Z,20.40
2022-12-31T00:06:25.815Z,23.10
2022-12-31T00:08:53.446Z,24.40
2022-12-31T00:11:20.586Z,24.90
2022-12-31T00:13:48.427Z,24.80
2022-12-31T00:16:26.715Z,27.60
2022-12-31T00:18:55.462Z,27.80
2022-12-31T00:21:22.369Z,24.80
2022-12-31T00:23:49.138Z,23.80
2022-12-31T00:26:18.197Z,21.90
2022-12-31T00:28:45.296Z,25.70
2022-12-31T00:31:19.898Z,27.40
2022-12-31T00:33:46.643Z,26.80
2022-12-31T00:36:15.517Z,22.80
2022-12-31T00:38:43.781Z,21.00
2022-12-31T00:41:10.717Z,20.90
2022-12-31T00:43:37.634Z,20.60
2022-12-31T00:46:04.578Z,20.20
2022-12-31T00:48:31.456Z,20.70
2022-12-31T00:50:58.233Z,20.20
2022-12-31T00:53:25.061Z,20.80
2022-12-31T00:55:51.797Z,20.80
2022-12-31T00:58:18.449Z,21.20
2022-12-31T01:00:45.063Z,21.00
2022-12-31T01:03:11.775Z,21.20
2022-12-31T01:05:38.536Z,22.80
2022-12-31T01:08:05.655Z,22.10
2022-12-31T01:10:51.074Z,23.40
2022-12-31T01:13:17.708Z,25.10
2022-12-31T01:15:44.522Z,23.20
2022-12-31T01:18:11.294Z,22.10
2022-12-31T01:20:39.447Z,23.10
2022-12-31T01:23:06.479Z,22.50
2022-12-31T01:25:37.664Z,23.20
2022-12-31T01:28:05.456Z,22.50
2022-12-31T01:30:32.239Z,21.50
2022-12-31T01:32:58.907Z,21.40
2022-12-31T01:35:25.880Z,21.40
2022-12-31T01:37:52.587Z,22.70
2022-12-31T01:40:19.222Z,24.00
2022-12-31T01:42:46.001Z,22.80
2022-12-31T01:45:13.539Z,23.00
2022-12-31T01:47:44.254Z,20.90
2022-12-31T01:50:29.263Z,17.50
2022-12-31T01:53:03.562Z,17.20
2022-12-31T01:55:35.548Z,20.00
2022-12-31T01:58:11.713Z,22.70
2022-12-31T02:00:38.540Z,24.30
2022-12-31T02:03:05.606Z,25.10
2022-12-31T02:05:54.034Z,27.80
2022-12-31T02:08:21.019Z,26.30
2022-12-31T02:10:47.656Z,24.10
2022-12-31T02:13:14.459Z,23.30
2022-12-31T02:16:01.297Z,23.10
2022-12-31T02:18:43.782Z,22.60
2022-12-31T02:21:32.524Z,24.20
2022-12-31T02:24:17.513Z,25.60
2022-12-31T02:27:02.445Z,25.80
2022-12-31T02:29:48.021Z,25.10
2022-12-31T02:32:21.902Z,19.80
2022-12-31T02:37:17.832Z,19.30
2022-12-31T02:39:44.517Z,19.60
2022-12-31T02:42:11.629Z,21.60
2022-12-31T02:44:41.140Z,21.30
2022-12-31T02:47:07.917Z,20.60
2022-12-31T02:49:43.607Z,20.70
2022-12-31T02:52:18.432Z,18.80
2022-12-31T02:54:51.582Z,18.80
2022-12-31T02:57:50.853Z,19.70
2022-12-31T03:00:38.090Z,18.90
2022-12-31T03:03:04.853Z,17.50
2022-12-31T03:05:34.798Z,16.20
2022-12-31T03:08:01.429Z,16.50
2022-12-31T03:10:28.152Z,15.20
2022-12-31T03:12:55.126Z,17.70
2022-12-31T03:15:22.869Z,17.20
2022-12-31T03:17:53.950Z,17.20
2022-12-31T03:20:40.345Z,17.10
2022-12-31T03:23:09.386Z,16.70
2022-12-31T03:25:36.134Z,16.00
2022-12-31T03:28:05.019Z,17.70
2022-12-31T03:30:32.087Z,17.30
2022-12-31T03:32:59.222Z,17.80
2022-12-31T03:35:26.912Z,17.60
2022-12-31T03:37:53.963Z,17.80
2022-12-31T03:40:21.887Z,18.00
2022-12-31T03:42:48.613Z,18.10
2022-12-31T03:45:15.680Z,18.30
2022-12-31T03:47:42.523Z,17.80
2022-12-31T03:50:09.887Z,18.90
2022-12-31T03:52:37.179Z,18.50
2022-12-31T03:55:04.205Z,18.00
2022-12-31T03:57:31.071Z,17.80
2022-12-31T03:59:57.757Z,16.90
2022-12-31T04:02:28.801Z,16.50
2022-12-31T04:04:56.259Z,16.70
2022-12-31T04:07:23.083Z,16.70
2022-12-31T04:09:49.759Z,16.90
2022-12-31T04:12:17.100Z,16.40
2022-12-31T04:14:43.827Z,17.10
2022-12-31T04:17:10.497Z,17.20
2022-12-31T04:19:37.729Z,17.70
2022-12-31T04:22:05.008Z,17.50
2022-12-31T04:24:31.732Z,17.20
2022-12-31T04:27:03.601Z,16.90
2022-12-31T04:29:34.404Z,16.80
2022-12-31T04:32:01.168Z,17.00
2022-12-31T04:34:27.913Z,15.80
2022-12-31T04:36:54.702Z,16.60
2022-12-31T04:39:21.374Z,16.80
2022-12-31T04:43:14.555Z,16.40
2022-12-31T04:45:41.246Z,16.20
2022-12-31T04:48:07.978Z,16.70
2022-12-31T04:50:34.639Z,16.30
2022-12-31T04:53:01.277Z,20.20
2022-12-31T04:55:28.048Z,18.90
2022-12-31T04:57:54.685Z,18.30
2022-12-31T05:00:21.424Z,18.40
2022-12-31T05:02:48.192Z,18.10
2022-12-31T05:05:14.954Z,18.40
2022-12-31T05:07:41.741Z,18.50
2022-12-31T05:10:08.451Z,18.90
2022-12-31T05:12:35.118Z,18.90
2022-12-31T05:15:01.874Z,17.20
2022-12-31T05:17:28.603Z,17.20
2022-12-31T05:19:55.347Z,18.60
2022-12-31T05:22:31.438Z,20.30
2022-12-31T05:24:58.452Z,20.80
2022-12-31T05:27:25.205Z,20.10
2022-12-31T05:29:51.848Z,18.80
2022-12-31T05:32:18.484Z,19.00
2022-12-31T05:34:45.168Z,19.00
2022-12-31T05:37:12.169Z,19.40
2022-12-31T05:39:38.794Z,18.90
2022-12-31T05:42:05.472Z,31.70
2022-12-31T05:44:32.172Z,32.30
2022-12-31T05:46:58.817Z,28.50
2022-12-31T05:49:25.578Z,28.00
2022-12-31T05:51:52.240Z,24.90
2022-12-31T05:54:19.062Z,24.60
2022-12-31T05:56:45.795Z,25.80
2022-12-31T05:59:12.537Z,24.10
2022-12-31T06:01:39.282Z,21.50
2022-12-31T06:04:06.149Z,22.60
2022-12-31T06:06:32.842Z,20.80
2022-12-31T06:08:59.499Z,19.50
2022-12-31T06:11:26.123Z,18.90
2022-12-31T06:13:52.802Z,19.50
2022-12-31T06:16:19.544Z,19.50
2022-12-31T06:18:50.790Z,19.10
2022-12-31T06:21:18.102Z,18.70
2022-12-31T06:23:44.754Z,19.10
2022-12-31T06:26:11.489Z,18.60
2022-12-31T06:28:38.210Z,18.20
2022-12-31T06:31:06.630Z,17.70
2022-12-31T06:33:33.522Z,20.40
2022-12-31T06:36:01.978Z,21.60
2022-12-31T06:38:29.796Z,21.60
2022-12-31T06:40:56.584Z,22.20
2022-12-31T06:43:23.381Z,21.60
2022-12-31T06:45:50.049Z,21.00
2022-12-31T06:48:16.855Z,21.00
2022-12-31T06:50:43.518Z,21.70
2022-12-31T06:53:11.739Z,22.40
2022-12-31T06:55:38.872Z,26.20
2022-12-31T06:58:05.683Z,27.30
2022-12-31T07:00:32.957Z,27.50
2022-12-31T07:03:02.795Z,27.00
2022-12-31T07:05:52.730Z,28.90
2022-12-31T07:08:46.369Z,32.70
2022-12-31T07:11:35.312Z,31.90
2022-12-31T07:14:27.307Z,31.80
2022-12-31T07:17:09.324Z,24.10
2022-12-31T07:19:58.139Z,25.50
2022-12-31T07:22:25.094Z,23.70
2022-12-31T07:24:52.092Z,23.30
2022-12-31T07:27:34.334Z,21.20
2022-12-31T07:30:04.204Z,19.70
2022-12-31T07:32:49.509Z,19.60
2022-12-31T07:35:51.322Z,21.50
2022-12-31T07:38:27.225Z,27.00
2022-12-31T07:41:23.805Z,29.90
2022-12-31T07:44:01.807Z,29.90
2022-12-31T07:46:40.839Z,33.10
2022-12-31T07:49:12.339Z,30.20
2022-12-31T07:51:39.706Z,27.60
2022-12-31T07:54:11.856Z,24.90
2022-12-31T07:56:40.680Z,21.20
2022-12-31T07:59:26.604Z,21.70
2022-12-31T08:02:04.788Z,22.30
2022-12-31T08:04:37.803Z,19.50
2022-12-31T08:07:32.728Z,19.10
2022-12-31T08:10:23.026Z,18.90
2022-12-31T08:12:50.253Z,16.80
2022-12-31T08:15:18.233Z,16.60
2022-12-31T08:17:45.193Z,16.00
2022-12-31T08:20:16.733Z,16.50
2022-12-31T08:23:05.261Z,17.40
2022-12-31T08:25:40.588Z,17.10
2022-12-31T08:28:19.823Z,17.40
2022-12-31T08:31:02.151Z,17.10
2022-12-31T08:34:10.056Z,18.20
2022-12-31T08:36:48.956Z,19.10
2022-12-31T08:39:41.965Z,19.20
2022-12-31T08:42:37.035Z,21.40
2022-12-31T08:45:37.836Z,22.40
2022-12-31T08:48:36.580Z,22.20
2022-12-31T08:51:03.437Z,21.90
2022-12-31T08:53:30.445Z,23.20
2022-12-31T08:56:02.791Z,22.50
2022-12-31T08:58:48.275Z,24.10
2022-12-31T09:01:15.061Z,24.70
2022-12-31T09:03:53.248Z,24.90
2022-12-31T09:06:25.995Z,26.00
2022-12-31T09:09:02.573Z,24.00
2022-12-31T09:11:53.022Z,23.80
2022-12-31T09:14:57.759Z,23.80
2022-12-31T09:19:58.488Z,22.80
2022-12-31T09:22:25.433Z,24.40
2022-12-31T09:24:52.311Z,24.40
2022-12-31T09:27:27.732Z,25.30
2022-12-31T09:29:57.654Z,23.30
2022-12-31T09:32:41.843Z,24.70
2022-12-31T09:35:24.087Z,23.20
2022-12-31T09:37:53.255Z,23.70
2022-12-31T09:40:29.081Z,22.10
2022-12-31T09:43:02.100Z,22.90
2022-12-31T09:46:07.628Z,25.70
2022-12-31T09:49:06.968Z,17.10
2022-12-31T09:51:38.248Z,17.10
2022-12-31T09:54:27.024Z,16.30
2022-12-31T09:57:20.122Z,16.00
2022-12-31T10:00:03.804Z,14.70
2022-12-31T10:02:48.346Z,16.70
2022-12-31T10:05:33.942Z,16.70
2022-12-31T10:08:06.759Z,13.70
2022-12-31T10:10:39.847Z,13.30
2022-12-31T10:13:28.619Z,13.70
2022-12-31T10:16:20.144Z,13.70
2022-12-31T10:19:17.722Z,13.40
2022-12-31T10:22:03.160Z,12.60
2022-12-31T10:24:51.733Z,12.40
2022-12-31T15:16:54.899Z,22.00
2022-12-31T15:19:40.290Z,20.50
2022-12-31T15:22:14.476Z,19.40
2022-12-31T15:24:45.636Z,19.10
2022-12-31T15:27:34.390Z,20.80
2022-12-31T15:30:01.167Z,19.60
2022-12-31T15:32:34.692Z,21.10
2022-12-31T15:35:20.988Z,19.70
2022-12-31T15:38:10.380Z,19.80
2022-12-31T15:40:44.354Z,19.10
2022-12-31T15:43:20.112Z,20.00
2022-12-31T15:45:48.286Z,19.20
2022-12-31T15:48:22.198Z,20.40
2022-12-31T15:50:49.990Z,20.80
2022-12-31T15:53:40.076Z,19.20
2022-12-31T15:56:08.117Z,18.60
2022-12-31T15:58:36.056Z,18.40
2022-12-31T16:01:19.074Z,18.60
2022-12-31T16:03:48.234Z,19.80
2022-12-31T16:06:15.713Z,18.40
2022-12-31T16:08:47.983Z,18.10
2022-12-31T16:11:14.809Z,18.60
2022-12-31T16:13:44.310Z,18.80
2022-12-31T16:16:31.629Z,19.20
2022-12-31T16:19:00.173Z,19.30
2022-12-31T16:21:33.630Z,19.80
2022-12-31T16:24:30.612Z,19.20
2022-12-31T16:27:02.327Z,19.30
2022-12-31T16:29:30.842Z,18.70
2022-12-31T16:31:57.508Z,19.30
2022-12-31T16:34:26.657Z,17.20
2022-12-31T16:37:05.333Z,17.30
2022-12-31T16:39:39.156Z,17.00
2022-12-31T16:44:43.645Z,17.30
2022-12-31T16:47:18.147Z,17.10
2022-12-31T16:49:45.582Z,16.80
2022-12-31T16:52:32.422Z,17.60
2022-12-31T16:54:59.184Z,16.30
2022-12-31T16:57:27.345Z,16.50
2022-12-31T17:00:02.454Z,16.40
2022-12-31T17:02:39.952Z,17.10
2022-12-31T17:05:21.661Z,16.50
2022-12-31T17:07:48.422Z,16.80
2022-12-31T17:10:23.375Z,16.50
2022-12-31T17:13:27.642Z,15.80
2022-12-31T17:15:44.804Z,14.90
2022-12-31T17:18:17.537Z,13.70
2022-12-31T17:20:44.232Z,13.50
2022-12-31T17:23:11.786Z,14.30
2022-12-31T17:25:38.596Z,13.40
2022-12-31T17:28:07.229Z,13.70
2022-12-31T17:30:34.742Z,13.40
2022-12-31T17:33:05.404Z,13.60
2022-12-31T17:35:36.876Z,14.00
2022-12-31T17:38:21.312Z,14.10
2022-12-31T17:41:08.237Z,12.80
2022-12-31T17:43:38.419Z,12.70
2022-12-31T17:46:16.094Z,13.10
2022-12-31T17:48:44.068Z,14.50
2022-12-31T17:51:10.936Z,13.90
2022-12-31T17:53:38.197Z,13.70
2022-12-31T17:56:07.408Z,13.20
2022-12-31T17:58:51.408Z,13.10
2022-12-31T18:03:46.031Z,14.10
2022-12-31T18:06:16.479Z,13.40
2022-12-31T18:08:43.699Z,13.10
2022-12-31T18:11:14.514Z,13.80
2022-12-31T18:13:41.285Z,15.80
2022-12-31T18:16:08.152Z,17.20
2022-12-31T18:18:37.345Z,16.20
2022-12-31T18:21:05.425Z,13.50
2022-12-31T18:23:42.885Z,11.60
2022-12-31T18:26:13.055Z,12.70
2022-12-31T18:28:39.760Z,13.60
2022-12-31T18:31:06.532Z,12.60
2022-12-31T18:33:33.420Z,13.80
2022-12-31T18:36:09.218Z,14.30
2022-12-31T18:38:36.500Z,14.30
2022-12-31T18:41:03.725Z,13.70
2022-12-31T18:43:30.379Z,13.60
2022-12-31T18:45:57.176Z,12.50
2022-12-31T18:48:24.002Z,12.20
2022-12-31T18:50:50.710Z,11.90
2022-12-31T18:53:19.472Z,12.10
2022-12-31T18:55:53.674Z,11.90
2022-12-31T18:58:20.668Z,10.90
2022-12-31T19:00:48.122Z,10.20
2022-12-31T19:03:20.129Z,10.90
2022-12-31T19:05:49.863Z,10.80
2022-12-31T19:08:20.552Z,10.70
2022-12-31T19:10:47.959Z,10.50
2022-12-31T19:13:15.663Z,10.50
2022-12-31T19:15:44.376Z,13.00
2022-12-31T19:18:11.715Z,12.60
2022-12-31T19:20:39.069Z,10.20
2022-12-31T19:23:05.899Z,10.90
2022-12-31T19:25:34.354Z,10.30
2022-12-31T19:28:02.238Z,10.00
2022-12-31T19:30:31.040Z,10.00
2022-12-31T19:32:58.059Z,10.20
2022-12-31T19:35:25.021Z,10.50
2022-12-31T19:37:52.549Z,9.90
2022-12-31T19:40:27.339Z,10.40
2022-12-31T19:42:55.090Z,9.50
2022-12-31T19:45:26.410Z,9.30
2022-12-31T19:47:53.528Z,9.40
2022-12-31T19:50:22.256Z,10.10
2022-12-31T19:52:50.102Z,11.30
2022-12-31T19:55:19.410Z,10.10
2022-12-31T19:57:46.822Z,10.60
2022-12-31T20:00:15.046Z,10.80
2022-12-31T20:02:42.351Z,10.00
2022-12-31T20:05:09.992Z,10.00
2022-12-31T20:07:36.837Z,9.90
2022-12-31T20:10:04.934Z,9.20
2022-12-31T20:12:32.031Z,9.90
2022-12-31T20:14:58.707Z,9.50
2022-12-31T20:17:25.498Z,10.10
2022-12-31T20:19:52.236Z,9.20
2022-12-31T20:22:19.082Z,9.30
2022-12-31T20:24:45.832Z,9.70
2022-12-31T20:27:18.309Z,8.80
2022-12-31T20:29:45.518Z,9.00
2022-12-31T20:32:12.193Z,9.30
2022-12-31T20:34:38.916Z,8.50
2022-12-31T20:37:05.547Z,9.30
2022-12-31T20:39:32.238Z,8.90
2022-12-31T20:41:58.972Z,9.50
2022-12-31T20:44:25.663Z,9.60
2022-12-31T20:46:52.390Z,9.20
2022-12-31T20:49:37.088Z,9.30
2022-12-31T20:52:05.940Z,10.40
2022-12-31T20:54:32.774Z,10.40
2022-12-31T20:57:00.280Z,10.10
2022-12-31T20:59:27.770Z,10.50
2022-12-31T21:02:29.761Z,10.20
2022-12-31T21:04:41.395Z,10.40
2022-12-31T21:07:08.272Z,10.80
2022-12-31T21:09:35.014Z,9.30
2022-12-31T21:12:20.549Z,9.30
2022-12-31T21:14:47.244Z,9.40
2022-12-31T21:17:13.979Z,10.20
2022-12-31T21:19:40.808Z,10.10
2022-12-31T21:22:07.525Z,10.30
2022-12-31T21:24:34.357Z,10.10
2022-12-31T21:27:00.999Z,10.10
2022-12-31T21:29:32.642Z,10.20
2022-12-31T21:32:01.215Z,10.40
2022-12-31T21:34:27.905Z,10.30
2022-12-31T21:36:54.551Z,11.70
2022-12-31T21:39:21.384Z,11.00
2022-12-31T21:41:50.973Z,11.30
2022-12-31T21:44:20.891Z,13.00
2022-12-31T21:47:35.004Z,11.40
2022-12-31T21:50:03.204Z,10.70
2022-12-31T21:52:35.206Z,9.80
2022-12-31T21:55:21.678Z,9.50
2022-12-31T21:58:24.082Z,9.20
2022-12-31T22:00:54.879Z,10.30
2022-12-31T22:03:24.345Z,9.70
2022-12-31T22:05:52.072Z,10.50
2022-12-31T22:08:19.922Z,10.30
2022-12-31T22:10:52.088Z,10.30
2022-12-31T22:13:19.645Z,9.10
2022-12-31T22:15:47.166Z,9.50
2022-12-31T22:18:14.718Z,9.60
2022-12-31T22:20:41.510Z,9.30
2022-12-31T22:23:08.172Z,10.40
2022-12-31T22:25:35.509Z,10.70
2022-12-31T22:28:36.842Z,10.70
2022-12-31T22:30:49.713Z,10.80
2022-12-31T22:33:16.560Z,10.80
2022-12-31T22:35:43.194Z,11.00
2022-12-31T22:38:12.121Z,10.30
2022-12-31T22:40:39.409Z,10.30
2022-12-31T22:43:06.141Z,10.60
2022-12-31T22:45:32.899Z,11.10
2022-12-31T22:47:59.564Z,11.20
2022-12-31T22:50:26.208Z,11.20
2022-12-31T22:52:52.953Z,11.50
2022-12-31T22:55:19.592Z,10.40
2022-12-31T22:57:46.243Z,10.80
2022-12-31T23:00:13.795Z,10.60
2022-12-31T23:02:42.221Z,11.00
2022-12-31T23:05:14.921Z,11.20
2022-12-31T23:07:42.624Z,11.20
2022-12-31T23:10:28.660Z,11.70
2022-12-31T23:12:55.419Z,11.70
2022-12-31T23:15:40.743Z,11.90
2022-12-31T23:18:26.253Z,11.40
2022-12-31T23:21:12.038Z,10.30
2022-12-31T23:23:38.775Z,11.50
2022-12-31T23:26:07.053Z,11.40
2022-12-31T23:28:33.792Z,11.70
2022-12-31T23:31:05.997Z,12.00
2022-12-31T23:33:32.691Z,11.80
2022-12-31T23:36:06.172Z,11.90
2022-12-31T23:38:33.479Z,12.50
2022-12-31T23:41:00.659Z,13.00
2022-12-31T23:43:28.407Z,14.90
2022-12-31T23:45:55.260Z,16.30
2022-12-31T23:48:21.962Z,16.90
2022-12-31T23:50:53.569Z,21.20
2022-12-31T23:53:24.454Z,14.70
2022-12-31T23:55:51.906Z,13.60
2022-12-31T23:58:18.550Z,13.60
